createdAt,value
2019-02-11T00:01:20.935Z,100.00
2019-02-11T00:04:09.904Z,100.00
2019-02-11T00:06:59.497Z,100.00
2019-02-11T00:09:48.608Z,100.00
2019-02-11T00:12:38.156Z,100.00
2019-02-11T00:15:26.751Z,100.00
2019-02-11T00:18:16.253Z,100.00
2019-02-11T00:21:05.905Z,100.00
2019-02-11T00:23:55.132Z,100.00
2019-02-11T00:26:44.193Z,100.00
2019-02-11T00:29:33.210Z,100.00
2019-02-11T00:32:22.971Z,100.00
2019-02-11T00:35:12.708Z,100.00
2019-02-11T00:38:02.170Z,100.00
2019-02-11T00:40:51.420Z,100.00
2019-02-11T00:43:40.784Z,100.00
2019-02-11T00:46:30.031Z,100.00
2019-02-11T00:49:19.353Z,100.00
2019-02-11T00:52:08.983Z,100.00
2019-02-11T00:54:58.496Z,100.00
2019-02-11T00:57:48.079Z,100.00
2019-02-11T01:00:37.396Z,100.00
2019-02-11T01:03:28.814Z,100.00
2019-02-11T01:06:17.940Z,100.00
2019-02-11T01:09:07.998Z,100.00
2019-02-11T01:11:57.666Z,100.00
2019-02-11T01:14:47.116Z,100.00
2019-02-11T01:17:38.671Z,100.00
2019-02-11T01:20:27.471Z,100.00
2019-02-11T01:23:17.042Z,100.00
2019-02-11T01:26:06.345Z,100.00
2019-02-11T01:28:55.647Z,100.00
2019-02-11T01:31:45.190Z,100.00
2019-02-11T01:34:34.022Z,100.00
2019-02-11T01:37:23.567Z,100.00
2019-02-11T01:40:13.041Z,100.00
2019-02-11T01:43:02.641Z,100.00
2019-02-11T01:45:52.021Z,100.00
2019-02-11T01:48:41.590Z,100.00
2019-02-11T01:51:31.304Z,100.00
2019-02-11T01:54:20.731Z,100.00
2019-02-11T01:57:10.252Z,100.00
2019-02-11T01:59:59.515Z,100.00
2019-02-11T02:02:49.097Z,100.00
2019-02-11T02:05:38.368Z,100.00
2019-02-11T02:08:27.791Z,100.00
2019-02-11T02:11:17.327Z,100.00
2019-02-11T02:14:06.746Z,100.00
2019-02-11T02:16:56.310Z,100.00
2019-02-11T02:19:45.523Z,100.00
2019-02-11T02:22:35.066Z,100.00
2019-02-11T02:25:24.768Z,100.00
2019-02-11T02:28:14.387Z,100.00
2019-02-11T02:31:04.136Z,100.00
2019-02-11T02:33:53.200Z,100.00
2019-02-11T02:36:42.515Z,100.00
2019-02-11T02:39:31.757Z,100.00
2019-02-11T02:42:21.116Z,100.00
2019-02-11T02:45:10.586Z,100.00
2019-02-11T02:48:00.076Z,100.00
2019-02-11T02:50:49.669Z,100.00
2019-02-11T02:53:38.979Z,100.00
2019-02-11T02:56:28.247Z,100.00
2019-02-11T02:59:17.579Z,100.00
2019-02-11T03:02:06.912Z,100.00
2019-02-11T03:04:55.900Z,100.00
2019-02-11T03:07:45.349Z,100.00
2019-02-11T03:10:35.051Z,100.00
2019-02-11T03:13:25.103Z,100.00
2019-02-11T03:16:14.533Z,100.00
2019-02-11T03:19:03.860Z,100.00
2019-02-11T03:21:53.012Z,100.00
2019-02-11T03:24:42.761Z,100.00
2019-02-11T03:27:32.171Z,100.00
2019-02-11T03:30:21.456Z,100.00
2019-02-11T03:33:11.111Z,100.00
2019-02-11T03:36:00.268Z,100.00
2019-02-11T03:38:49.385Z,100.00
2019-02-11T03:41:38.801Z,100.00
2019-02-11T03:44:27.670Z,100.00
2019-02-11T03:47:17.327Z,100.00
2019-02-11T03:50:07.543Z,100.00
2019-02-11T03:52:56.663Z,100.00
2019-02-11T03:55:45.722Z,100.00
2019-02-11T03:58:35.026Z,100.00
2019-02-11T04:01:27.381Z,100.00
2019-02-11T04:04:16.897Z,100.00
2019-02-11T04:07:06.562Z,100.00
2019-02-11T04:09:55.771Z,100.00
2019-02-11T04:12:44.631Z,100.00
2019-02-11T04:15:34.025Z,100.00
2019-02-11T04:18:23.754Z,100.00
2019-02-11T04:21:13.196Z,100.00
2019-02-11T04:24:02.611Z,100.00
2019-02-11T04:26:51.658Z,100.00
2019-02-11T04:29:41.261Z,100.00
2019-02-11T04:32:30.811Z,100.00
2019-02-11T04:35:20.080Z,100.00
2019-02-11T04:38:11.545Z,100.00
2019-02-11T04:41:01.038Z,100.00
2019-02-11T04:43:50.366Z,100.00
2019-02-11T04:46:39.627Z,100.00
2019-02-11T04:49:29.208Z,100.00
2019-02-11T04:52:18.564Z,100.00
2019-02-11T04:55:07.931Z,100.00
2019-02-11T04:57:57.406Z,100.00
2019-02-11T05:00:46.300Z,100.00
2019-02-11T05:03:35.668Z,100.00
2019-02-11T05:06:24.951Z,100.00
2019-02-11T05:09:14.123Z,100.00
2019-02-11T05:12:03.553Z,100.00
2019-02-11T05:14:54.581Z,100.00
2019-02-11T05:17:47.101Z,100.00
2019-02-11T05:20:36.911Z,100.00
2019-02-11T05:23:26.293Z,100.00
2019-02-11T05:26:15.872Z,100.00
2019-02-11T05:29:05.214Z,100.00
2019-02-11T05:31:54.565Z,100.00
2019-02-11T05:34:44.030Z,100.00
2019-02-11T05:37:33.704Z,100.00
2019-02-11T05:40:23.422Z,100.00
2019-02-11T05:43:15.103Z,100.00
2019-02-11T05:46:04.731Z,100.00
2019-02-11T05:48:54.519Z,100.00
2019-02-11T05:51:43.754Z,100.00
2019-02-11T05:54:33.095Z,100.00
2019-02-11T05:57:22.437Z,100.00
2019-02-11T06:00:13.997Z,100.00
2019-02-11T06:03:06.172Z,100.00
2019-02-11T06:05:55.582Z,100.00
2019-02-11T06:08:44.959Z,100.00
2019-02-11T06:11:34.261Z,100.00
2019-02-11T06:14:23.530Z,100.00
2019-02-11T06:17:12.854Z,100.00
2019-02-11T06:20:03.369Z,100.00
2019-02-11T06:22:52.225Z,100.00
2019-02-11T06:25:41.935Z,100.00
2019-02-11T06:28:30.836Z,100.00
2019-02-11T06:31:20.074Z,100.00
2019-02-11T06:34:09.686Z,100.00
2019-02-11T06:36:58.997Z,100.00
2019-02-11T06:39:48.064Z,100.00
2019-02-11T06:42:37.524Z,100.00
2019-02-11T06:45:27.423Z,100.00
2019-02-11T06:48:16.398Z,100.00
2019-02-11T06:51:05.956Z,100.00
2019-02-11T06:53:55.075Z,100.00
2019-02-11T06:56:50.412Z,100.00
2019-02-11T06:59:39.168Z,100.00
2019-02-11T07:02:28.419Z,100.00
2019-02-11T07:05:17.934Z,100.00
2019-02-11T07:08:08.070Z,100.00
2019-02-11T07:10:57.558Z,100.00
2019-02-11T07:13:46.450Z,99.75
2019-02-11T07:16:36.207Z,98.69
2019-02-11T07:19:25.316Z,97.27
2019-02-11T07:22:15.608Z,94.68
2019-02-11T07:25:11.325Z,93.90
2019-02-11T07:28:00.580Z,93.81
2019-02-11T07:30:49.729Z,91.51
2019-02-11T07:33:39.307Z,89.30
2019-02-11T07:36:28.534Z,88.31
2019-02-11T07:39:17.841Z,88.70
2019-02-11T07:42:35.273Z,88.31
2019-02-11T07:45:38.369Z,87.24
2019-02-11T07:48:27.629Z,88.05
2019-02-11T07:51:16.942Z,87.84
2019-02-11T07:54:05.822Z,88.39
2019-02-11T07:56:55.302Z,88.64
2019-02-11T07:59:44.706Z,88.99
2019-02-11T08:02:33.843Z,87.95
2019-02-11T08:05:23.327Z,88.62
2019-02-11T08:08:12.826Z,88.48
2019-02-11T08:11:01.628Z,88.04
2019-02-11T08:13:50.898Z,87.36
2019-02-11T08:16:39.757Z,86.83
2019-02-11T08:19:29.160Z,86.38
2019-02-11T08:22:18.643Z,86.76
2019-02-11T08:25:07.539Z,87.46
2019-02-11T08:27:56.885Z,88.02
2019-02-11T08:30:46.111Z,88.32
2019-02-11T08:33:35.739Z,87.56
2019-02-11T08:36:25.553Z,85.21
2019-02-11T08:39:15.043Z,87.39
2019-02-11T08:42:04.391Z,86.88
2019-02-11T08:44:53.570Z,88.43
2019-02-11T08:47:45.776Z,85.58
2019-02-11T08:50:35.233Z,85.57
2019-02-11T08:53:23.995Z,87.45
2019-02-11T08:56:13.846Z,87.35
2019-02-11T08:59:04.838Z,85.67
2019-02-11T09:01:54.144Z,86.46
2019-02-11T09:04:43.674Z,86.51
2019-02-11T09:07:33.249Z,86.19
2019-02-11T09:10:22.522Z,85.53
2019-02-11T09:13:11.956Z,83.91
2019-02-11T09:16:03.163Z,84.75
2019-02-11T09:18:52.257Z,82.47
2019-02-11T09:21:41.672Z,85.05
2019-02-11T09:24:34.959Z,85.83
2019-02-11T09:27:24.380Z,84.91
2019-02-11T09:30:15.026Z,84.85
2019-02-11T09:33:04.297Z,83.90
2019-02-11T09:35:53.560Z,83.73
2019-02-11T09:38:48.646Z,83.55
2019-02-11T09:41:38.372Z,85.43
2019-02-11T09:44:29.636Z,85.40
2019-02-11T09:47:18.166Z,84.83
2019-02-11T09:50:22.636Z,83.78
2019-02-11T09:53:12.141Z,86.10
2019-02-11T09:56:01.594Z,86.47
2019-02-11T09:58:50.922Z,85.05
2019-02-11T10:01:40.409Z,83.16
2019-02-11T10:04:29.830Z,83.69
2019-02-11T10:07:19.102Z,82.43
2019-02-11T10:10:09.482Z,81.89
2019-02-11T10:12:59.167Z,82.21
2019-02-11T10:15:48.523Z,82.67
2019-02-11T10:18:37.555Z,81.73
2019-02-11T10:21:26.827Z,82.01
2019-02-11T10:24:16.142Z,80.90
2019-02-11T10:27:08.223Z,83.43
2019-02-11T10:29:57.406Z,81.65
2019-02-11T10:32:46.362Z,79.66
2019-02-11T10:35:42.048Z,78.12
2019-02-11T10:38:25.572Z,76.12
2019-02-11T10:41:15.094Z,75.74
2019-02-11T10:44:04.369Z,75.26
2019-02-11T10:46:53.632Z,74.63
2019-02-11T10:49:43.080Z,74.06
2019-02-11T10:52:32.577Z,74.39
2019-02-11T10:55:21.836Z,73.04
2019-02-11T10:58:11.527Z,74.65
2019-02-11T11:01:01.166Z,74.06
2019-02-11T11:03:50.697Z,73.75
2019-02-11T11:06:40.223Z,73.49
2019-02-11T11:09:31.306Z,72.13
2019-02-11T11:12:21.321Z,71.68
2019-02-11T11:15:11.060Z,70.57
2019-02-11T11:18:00.388Z,68.85
2019-02-11T11:20:50.039Z,67.90
2019-02-11T11:23:39.303Z,67.36
2019-02-11T11:26:28.687Z,66.79
2019-02-11T11:29:18.037Z,68.37
2019-02-11T11:32:07.662Z,70.03
2019-02-11T11:34:56.936Z,70.55
2019-02-11T11:37:46.207Z,70.15
2019-02-11T11:40:35.553Z,69.26
2019-02-11T11:43:24.813Z,69.90
2019-02-11T11:46:13.790Z,68.08
2019-02-11T11:49:02.978Z,67.65
2019-02-11T11:51:52.132Z,67.19
2019-02-11T11:54:41.387Z,67.69
2019-02-11T11:57:31.110Z,68.71
2019-02-11T12:00:25.629Z,67.84
2019-02-11T12:03:14.863Z,68.47
2019-02-11T12:06:04.984Z,68.44
2019-02-11T12:08:54.487Z,66.32
2019-02-11T12:11:43.833Z,66.47
2019-02-11T12:14:32.710Z,67.83
2019-02-11T12:17:22.180Z,68.31
2019-02-11T12:20:12.385Z,69.04
2019-02-11T12:23:01.632Z,69.41
2019-02-11T12:25:50.793Z,69.08
2019-02-11T12:28:40.211Z,70.79
2019-02-11T12:31:29.949Z,71.25
2019-02-11T12:34:19.485Z,70.48
2019-02-11T12:37:09.928Z,70.74
2019-02-11T12:39:58.984Z,69.89
2019-02-11T12:42:48.354Z,71.89
2019-02-11T12:45:37.640Z,70.92
2019-02-11T12:48:27.145Z,70.89
2019-02-11T12:51:16.313Z,71.05
2019-02-11T12:54:05.151Z,70.41
2019-02-11T12:56:54.371Z,71.16
2019-02-11T12:59:43.173Z,69.75
2019-02-11T13:02:32.559Z,70.16
2019-02-11T13:05:09.400Z,70.68
2019-02-11T13:07:46.575Z,70.42
2019-02-11T13:10:19.754Z,69.90
2019-02-11T13:12:54.912Z,70.67
2019-02-11T13:16:00.278Z,69.87
2019-02-11T13:18:21.382Z,69.28
2019-02-11T13:20:55.578Z,69.91
2019-02-11T13:23:26.434Z,69.19
2019-02-11T13:26:00.671Z,69.60
2019-02-11T13:28:31.773Z,69.99
2019-02-11T13:31:02.614Z,70.31
2019-02-11T13:33:35.149Z,70.35
2019-02-11T13:36:07.909Z,71.52
2019-02-11T13:38:38.761Z,71.76
2019-02-11T13:41:11.209Z,72.82
2019-02-11T13:43:51.838Z,72.07
2019-02-11T13:46:22.741Z,72.13
2019-02-11T13:48:53.570Z,73.34
2019-02-11T13:51:24.611Z,72.31
2019-02-11T13:53:57.144Z,72.94
2019-02-11T13:56:28.004Z,70.89
2019-02-11T13:58:58.904Z,69.01
2019-02-11T14:01:31.349Z,67.04
2019-02-11T14:04:08.234Z,67.98
2019-02-11T14:06:40.960Z,68.27
2019-02-11T14:09:16.886Z,69.14
2019-02-11T14:11:52.708Z,67.73
2019-02-11T14:14:29.336Z,61.92
2019-02-11T14:17:00.209Z,60.25
2019-02-11T14:19:31.348Z,61.53
2019-02-11T14:22:02.271Z,64.42
2019-02-11T14:24:34.745Z,67.89
2019-02-11T14:27:05.591Z,69.03
2019-02-11T14:29:39.728Z,71.97
2019-02-11T14:32:10.586Z,73.25
2019-02-11T14:34:41.615Z,72.66
2019-02-11T14:37:12.476Z,73.13
2019-02-11T14:39:43.604Z,73.38
2019-02-11T14:42:18.777Z,73.80
2019-02-11T14:44:49.642Z,73.80
2019-02-11T14:47:20.509Z,73.71
2019-02-11T14:49:57.647Z,73.97
2019-02-11T14:52:35.770Z,73.32
2019-02-11T14:55:07.126Z,73.74
2019-02-11T14:57:41.124Z,73.68
2019-02-11T15:00:17.701Z,74.54
2019-02-11T15:02:48.780Z,74.99
2019-02-11T15:05:19.801Z,76.12
2019-02-11T15:07:50.753Z,75.58
2019-02-11T15:10:21.781Z,76.19
2019-02-11T15:12:52.669Z,75.73
2019-02-11T15:15:23.765Z,76.43
2019-02-11T15:17:54.864Z,78.94
2019-02-11T15:20:25.726Z,77.16
2019-02-11T15:22:59.916Z,77.98
2019-02-11T15:25:32.403Z,77.41
2019-02-11T15:28:03.275Z,78.69
2019-02-11T15:30:34.182Z,78.18
2019-02-11T15:33:11.547Z,79.30
2019-02-11T15:35:45.349Z,80.78
2019-02-11T15:38:19.074Z,80.57
2019-02-11T15:40:49.954Z,80.97
2019-02-11T15:43:20.879Z,81.65
2019-02-11T15:45:53.337Z,82.46
2019-02-11T15:48:24.551Z,84.50
2019-02-11T15:50:57.092Z,84.49
2019-02-11T15:53:29.594Z,86.58
2019-02-11T15:56:07.718Z,86.74
2019-02-11T15:58:33.345Z,88.69
2019-02-11T16:01:04.255Z,88.62
2019-02-11T16:03:37.000Z,87.58
2019-02-11T16:06:10.650Z,86.86
2019-02-11T16:08:41.092Z,86.89
2019-02-11T16:11:12.366Z,85.99
2019-02-11T16:13:43.308Z,86.65
2019-02-11T16:16:14.255Z,87.24
2019-02-11T16:18:51.709Z,87.90
2019-02-11T16:21:17.812Z,87.77
2019-02-11T16:23:48.683Z,88.04
2019-02-11T16:26:19.579Z,88.27
2019-02-11T16:28:50.539Z,89.21
2019-02-11T16:31:21.408Z,89.92
2019-02-11T16:33:53.695Z,89.96
2019-02-11T16:36:24.607Z,90.17
2019-02-11T16:38:59.063Z,89.81
2019-02-11T16:41:29.950Z,89.00
2019-02-11T16:44:04.424Z,89.42
2019-02-11T16:46:35.344Z,89.27
2019-02-11T16:49:06.271Z,90.46
2019-02-11T16:51:40.933Z,91.24
2019-02-11T16:54:11.818Z,92.32
2019-02-11T16:56:42.680Z,90.81
2019-02-11T16:59:15.221Z,90.56
2019-02-11T17:01:49.684Z,90.73
2019-02-11T17:04:20.572Z,91.37
2019-02-11T17:06:51.492Z,89.81
2019-02-11T17:09:22.497Z,88.78
2019-02-11T17:11:53.447Z,89.14
2019-02-11T17:14:25.965Z,88.43
2019-02-11T17:16:56.834Z,88.37
2019-02-11T17:19:27.754Z,89.81
2019-02-11T17:21:59.218Z,90.53
2019-02-11T17:24:30.088Z,89.95
2019-02-11T17:27:00.990Z,89.67
2019-02-11T17:29:32.103Z,90.26
2019-02-11T17:32:03.173Z,90.17
2019-02-11T17:34:35.251Z,88.69
2019-02-11T17:37:06.179Z,88.11
2019-02-11T17:39:37.050Z,89.95
2019-02-11T17:42:07.939Z,89.65
2019-02-11T17:44:38.856Z,89.07
2019-02-11T17:47:09.724Z,89.02
2019-02-11T17:49:40.595Z,90.02
2019-02-11T17:52:11.669Z,87.71
2019-02-11T17:54:44.126Z,87.96
2019-02-11T17:57:15.105Z,89.32
2019-02-11T17:59:46.046Z,89.78
2019-02-11T18:02:16.987Z,89.14
2019-02-11T18:04:49.934Z,89.45
2019-02-11T18:07:20.847Z,88.66
2019-02-11T18:09:51.728Z,89.27
2019-02-11T18:12:22.612Z,89.87
2019-02-11T18:14:53.531Z,89.37
2019-02-11T18:17:24.488Z,90.45
2019-02-11T18:19:55.390Z,87.86
2019-02-11T18:22:45.105Z,88.19
2019-02-11T18:25:15.987Z,88.34
2019-02-11T18:27:49.506Z,88.70
2019-02-11T18:30:20.425Z,89.32
2019-02-11T18:32:51.388Z,89.21
2019-02-11T18:35:23.407Z,89.71
2019-02-11T18:37:54.284Z,89.90
2019-02-11T18:40:25.288Z,90.09
2019-02-11T18:42:56.238Z,90.52
2019-02-11T18:45:27.237Z,89.71
2019-02-11T18:47:58.128Z,90.42
2019-02-11T18:50:29.058Z,90.91
2019-02-11T18:53:01.523Z,90.92
2019-02-11T18:55:32.454Z,91.30
2019-02-11T18:58:03.382Z,91.59
2019-02-11T19:00:34.355Z,91.14
2019-02-11T19:03:05.506Z,91.64
2019-02-11T19:05:36.468Z,91.31
2019-02-11T19:08:07.441Z,91.73
2019-02-11T19:10:38.337Z,91.73
2019-02-11T19:13:09.470Z,92.19
2019-02-11T19:15:40.398Z,92.72
2019-02-11T19:18:11.487Z,93.59
2019-02-11T19:20:42.644Z,93.94
2019-02-11T19:23:13.631Z,94.06
2019-02-11T19:25:45.777Z,93.65
2019-02-11T19:28:16.829Z,94.10
2019-02-11T19:30:47.727Z,93.89
2019-02-11T19:33:18.665Z,94.46
2019-02-11T19:35:49.853Z,94.45
2019-02-11T19:38:20.828Z,94.85
2019-02-11T19:40:51.817Z,94.81
2019-02-11T19:43:23.461Z,94.44
2019-02-11T19:45:54.643Z,95.42
2019-02-11T19:48:26.602Z,95.98
2019-02-11T19:50:57.550Z,96.08
2019-02-11T19:53:28.521Z,95.49
2019-02-11T19:55:59.415Z,96.03
2019-02-11T19:58:30.674Z,96.11
2019-02-11T20:01:01.598Z,96.51
2019-02-11T20:03:32.456Z,96.42
2019-02-11T20:06:03.595Z,95.01
2019-02-11T20:08:34.513Z,95.47
2019-02-11T20:11:05.506Z,95.03
2019-02-11T20:13:36.437Z,94.82
2019-02-11T20:16:07.330Z,95.41
2019-02-11T20:18:38.602Z,94.82
2019-02-11T20:21:15.019Z,95.08
2019-02-11T20:23:45.920Z,95.13
2019-02-11T20:26:21.646Z,95.78
2019-02-11T20:28:52.542Z,95.96
2019-02-11T20:31:23.430Z,96.05
2019-02-11T20:33:54.690Z,97.40
2019-02-11T20:36:25.698Z,98.34
2019-02-11T20:39:00.720Z,99.80
2019-02-11T20:41:34.659Z,99.08
2019-02-11T20:44:06.521Z,99.22
2019-02-11T20:46:37.443Z,100.00
2019-02-11T20:49:08.407Z,100.00
2019-02-11T20:51:39.617Z,100.00
2019-02-11T20:54:10.959Z,100.00
2019-02-11T20:56:41.941Z,100.00
2019-02-11T20:59:31.278Z,100.00
2019-02-11T21:02:20.950Z,100.00
2019-02-11T21:05:10.783Z,100.00
2019-02-11T21:07:59.768Z,100.00
2019-02-11T21:10:49.553Z,100.00
2019-02-11T21:13:39.018Z,100.00
2019-02-11T21:16:28.077Z,100.00
2019-02-11T21:19:20.067Z,100.00
2019-02-11T21:22:09.762Z,100.00
2019-02-11T21:24:58.975Z,100.00
2019-02-11T21:27:50.637Z,100.00
2019-02-11T21:30:40.125Z,100.00
2019-02-11T21:33:29.466Z,100.00
2019-02-11T21:36:19.184Z,100.00
2019-02-11T21:39:08.119Z,100.00
2019-02-11T21:41:56.691Z,100.00
2019-02-11T21:44:46.052Z,100.00
2019-02-11T21:47:38.712Z,100.00
2019-02-11T21:50:27.536Z,100.00
2019-02-11T21:53:17.405Z,100.00
2019-02-11T21:56:06.608Z,100.00
2019-02-11T21:58:56.254Z,100.00
2019-02-11T22:01:45.548Z,100.00
2019-02-11T22:04:35.173Z,100.00
2019-02-11T22:07:24.372Z,100.00
2019-02-11T22:10:15.285Z,100.00
2019-02-11T22:13:05.146Z,100.00
2019-02-11T22:15:57.759Z,100.00
2019-02-11T22:18:47.411Z,100.00
2019-02-11T22:21:37.306Z,100.00
2019-02-11T22:24:26.529Z,100.00
2019-02-11T22:27:15.927Z,100.00
2019-02-11T22:30:07.235Z,100.00
2019-02-11T22:32:57.118Z,100.00
2019-02-11T22:35:46.456Z,100.00
2019-02-11T22:38:35.933Z,100.00
2019-02-11T22:41:25.545Z,100.00
2019-02-11T22:44:15.433Z,100.00
2019-02-11T22:47:05.120Z,100.00
2019-02-11T22:49:54.599Z,100.00
2019-02-11T22:52:44.331Z,100.00
2019-02-11T22:55:33.664Z,100.00
2019-02-11T22:58:23.725Z,100.00
2019-02-11T23:01:13.864Z,100.00
2019-02-11T23:04:03.907Z,100.00
2019-02-11T23:06:54.483Z,100.00
2019-02-11T23:09:43.631Z,100.00
2019-02-11T23:12:33.187Z,100.00
2019-02-11T23:15:22.728Z,100.00
2019-02-11T23:18:12.688Z,100.00
2019-02-11T23:21:02.067Z,100.00
2019-02-11T23:23:51.617Z,100.00
2019-02-11T23:26:42.214Z,100.00
2019-02-11T23:29:31.485Z,100.00
2019-02-11T23:32:20.238Z,100.00
2019-02-11T23:35:09.635Z,100.00
2019-02-11T23:37:59.121Z,100.00
2019-02-11T23:40:48.519Z,100.00
2019-02-11T23:43:37.981Z,100.00
2019-02-11T23:46:27.678Z,100.00
2019-02-11T23:49:17.178Z,100.00
2019-02-11T23:52:06.596Z,100.00
2019-02-11T23:54:55.830Z,100.00
2019-02-11T23:57:45.256Z,100.00
